Time;durP1;ratioP1;P1;durP2;ratioP2;P2;SDS_P1;SDS_P2;PMS_P1;PMS_P2;Temp;Humidity;BMP_temperature;BMP_pressure;BME280_temperature;BME280_humidity;BME280_pressure;Samples;Min_cycle;Max_cycle;Signal;HPM_P1;HPM_P2
2021/05/04 00:01:12;;;;;;;4.05;2.10;;;16.10;35.00;;;;;;1490781;39;20324;-51
2021/05/04 00:02:33;;;;;;;1.80;1.70;;;16.10;35.00;;;;;;1491111;39;20024;-53
2021/05/04 00:03:54;;;;;;;2.20;2.00;;;16.10;35.00;;;;;;1491522;39;20024;-54
2021/05/04 00:05:15;;;;;;;1.90;1.80;;;16.10;35.00;;;;;;1491509;39;20069;-53
2021/05/04 00:06:36;;;;;;;2.00;1.50;;;16.10;35.00;;;;;;1490575;39;20028;-51
2021/05/04 00:07:57;;;;;;;1.70;1.60;;;16.20;34.90;;;;;;1490164;39;20031;-53
2021/05/04 00:09:18;;;;;;;3.80;2.15;;;16.20;34.90;;;;;;1490945;39;20042;-55
2021/05/04 00:10:39;;;;;;;3.65;1.80;;;16.20;34.90;;;;;;1490148;39;20607;-53
2021/05/04 00:12:00;;;;;;;1.95;1.75;;;16.20;34.80;;;;;;1490842;39;20035;-53
2021/05/04 00:13:21;;;;;;;1.73;1.63;;;16.20;34.80;;;;;;1490331;39;20269;-54
2021/05/04 00:14:42;;;;;;;3.55;1.63;;;16.30;34.80;;;;;;1490987;39;20016;-51
2021/05/04 00:16:03;;;;;;;1.60;1.50;;;16.30;34.80;;;;;;1489946;39;20036;-52
2021/05/04 00:17:24;;;;;;;2.17;1.98;;;16.30;34.80;;;;;;1491063;39;20063;-54
2021/05/04 00:18:45;;;;;;;1.50;1.40;;;16.30;34.70;;;;;;1491548;39;20024;-55
2021/05/04 00:20:07;;;;;;;4.18;1.75;;;16.30;34.70;;;;;;1491281;39;20040;-54
2021/05/04 00:21:27;;;;;;;2.58;1.73;;;16.30;34.50;;;;;;1490436;39;20140;-54
2021/05/04 00:22:48;;;;;;;1.60;1.50;;;16.30;34.50;;;;;;1490633;39;20071;-54
2021/05/04 00:24:09;;;;;;;1.70;1.60;;;16.30;34.50;;;;;;1490471;39;20364;-53
2021/05/04 00:25:30;;;;;;;1.70;1.50;;;16.40;34.50;;;;;;1490598;39;20059;-50
2021/05/04 00:26:51;;;;;;;2.03;1.90;;;16.40;34.40;;;;;;1490520;39;20128;-52
2021/05/04 00:28:12;;;;;;;1.83;1.55;;;16.40;34.30;;;;;;1490251;39;20074;-53
2021/05/04 00:29:33;;;;;;;1.80;1.50;;;16.40;34.90;;;;;;1490664;39;20357;-53
2021/05/04 00:30:54;;;;;;;1.92;1.50;;;16.40;34.30;;;;;;1491338;39;20039;-52
2021/05/04 00:32:15;;;;;;;1.55;1.45;;;16.40;34.30;;;;;;1491307;39;20024;-50
2021/05/04 00:33:36;;;;;;;1.63;1.52;;;16.40;34.30;;;;;;1491392;39;20135;-51
2021/05/04 00:34:57;;;;;;;3.63;1.48;;;16.40;34.10;;;;;;1489151;39;20051;-53
2021/05/04 00:36:18;;;;;;;1.63;1.52;;;16.40;34.20;;;;;;1491183;39;20016;-53
2021/05/04 00:37:39;;;;;;;1.52;1.40;;;16.40;34.10;;;;;;1491099;39;20024;-53
2021/05/04 00:39:00;;;;;;;1.60;1.50;;;16.40;34.10;;;;;;1489716;39;20083;-50
2021/05/04 00:40:21;;;;;;;2.25;1.50;;;16.50;34.10;;;;;;1490514;39;20393;-50
2021/05/04 00:41:41;;;;;;;2.00;1.23;;;16.40;34.00;;;;;;1491316;39;20016;-50
2021/05/04 00:43:02;;;;;;;1.70;1.58;;;16.40;34.00;;;;;;1487857;39;20032;-50
2021/05/04 00:44:23;;;;;;;1.33;1.23;;;16.40;34.00;;;;;;1488496;39;20273;-51
2021/05/04 00:45:44;;;;;;;1.60;1.50;;;16.40;33.90;;;;;;1489566;39;20036;-51
2021/05/04 00:47:05;;;;;;;1.50;1.40;;;16.50;34.00;;;;;;1490123;39;20028;-50
2021/05/04 00:48:28;;;;;;;1.50;1.23;;;16.50;34.10;;;;;;1491201;39;20108;-49
2021/05/04 00:49:49;;;;;;;1.45;1.35;;;16.50;34.00;;;;;;1489373;39;20039;-50
2021/05/04 00:51:10;;;;;;;3.13;1.50;;;16.50;33.90;;;;;;1489285;39;20245;-49
2021/05/04 00:52:31;;;;;;;1.58;1.48;;;16.50;33.90;;;;;;1490907;39;20027;-53
2021/05/04 00:53:52;;;;;;;2.90;1.20;;;16.50;33.90;;;;;;1488588;39;20032;-53
2021/05/04 00:55:13;;;;;;;6.63;1.30;;;16.50;33.90;;;;;;1489370;39;20040;-53
2021/05/04 00:56:36;;;;;;;2.22;1.38;;;16.50;33.80;;;;;;1490726;39;20064;-52
2021/05/04 00:57:58;;;;;;;1.80;1.20;;;16.50;33.80;;;;;;1489287;39;20098;-51
2021/05/04 00:59:24;;;;;;;1.58;1.30;;;16.50;33.80;;;;;;1490481;39;20378;-50
2021/05/04 01:00:45;;;;;;;1.95;1.40;;;16.50;34.30;;;;;;1491219;39;20054;-51
2021/05/04 01:02:06;;;;;;;2.42;1.42;;;16.50;33.60;;;;;;1490320;39;20012;-49
2021/05/04 01:03:27;;;;;;;3.03;1.58;;;16.50;33.80;;;;;;1491235;39;20064;-54
2021/05/04 01:04:48;;;;;;;1.65;1.27;;;16.50;33.70;;;;;;1489954;39;20024;-54
2021/05/04 01:06:09;;;;;;;2.10;1.10;;;16.50;33.60;;;;;;1490623;39;20089;-51
2021/05/04 01:07:30;;;;;;;1.95;1.38;;;16.50;33.50;;;;;;1491168;39;20084;-49
2021/05/04 01:08:51;;;;;;;2.90;1.40;;;16.60;33.50;;;;;;1487851;39;20315;-50
2021/05/04 01:10:12;;;;;;;3.83;1.35;;;16.60;33.40;;;;;;1491053;39;20513;-55
2021/05/04 01:11:33;;;;;;;2.40;1.80;;;16.60;33.30;;;;;;1490804;39;20116;-49
2021/05/04 01:12:54;;;;;;;1.95;1.42;;;16.60;33.30;;;;;;1489429;39;20028;-53
2021/05/04 01:14:15;;;;;;;2.50;1.63;;;16.60;33.40;;;;;;1489856;39;20024;-53
2021/05/04 01:15:36;;;;;;;3.22;1.35;;;16.60;33.30;;;;;;1491625;39;20024;-49
2021/05/04 01:16:57;;;;;;;1.75;1.30;;;16.60;33.20;;;;;;1491958;39;20613;-51
2021/05/04 01:18:19;;;;;;;1.35;1.00;;;16.60;33.30;;;;;;1488173;39;20272;-51
2021/05/04 01:19:40;;;;;;;2.28;1.10;;;16.60;33.20;;;;;;1491791;39;20053;-52
2021/05/04 01:21:01;;;;;;;1.55;1.10;;;16.60;33.20;;;;;;1491351;39;20024;-54
2021/05/04 01:22:22;;;;;;;1.48;1.25;;;16.60;33.00;;;;;;1489880;39;20094;-48
2021/05/04 01:23:43;;;;;;;2.55;1.23;;;16.60;33.20;;;;;;1490772;39;20261;-53
2021/05/04 01:25:05;;;;;;;4.43;1.33;;;16.60;32.90;;;;;;1491945;39;20027;-54
2021/05/04 01:26:26;;;;;;;1.90;1.10;;;16.60;32.80;;;;;;1490250;39;20525;-53
2021/05/04 01:27:47;;;;;;;4.93;1.45;;;16.60;32.60;;;;;;1489725;39;20038;-52
2021/05/04 01:29:08;;;;;;;2.28;1.23;;;16.60;32.60;;;;;;1490568;39;20379;-54
2021/05/04 01:30:29;;;;;;;3.60;1.33;;;16.60;32.50;;;;;;1491194;39;20353;-49
2021/05/04 01:31:50;;;;;;;6.50;1.23;;;16.60;32.30;;;;;;1489363;39;20044;-53
2021/05/04 01:33:11;;;;;;;2.80;1.20;;;16.60;32.20;;;;;;1487429;40;20036;-53
2021/05/04 01:34:32;;;;;;;4.70;1.27;;;16.60;32.50;;;;;;1488375;39;20064;-51
2021/05/04 01:35:53;;;;;;;1.98;1.13;;;16.70;32.80;;;;;;1491453;39;20069;-52
2021/05/04 01:37:14;;;;;;;5.40;1.65;;;16.60;33.30;;;;;;1491671;39;20124;-49
2021/05/04 01:38:35;;;;;;;3.97;1.20;;;16.70;32.90;;;;;;1491008;39;20059;-52
2021/05/04 01:39:55;;;;;;;3.25;1.10;;;16.60;33.30;;;;;;1490859;39;20112;-50
2021/05/04 01:41:16;;;;;;;3.40;1.17;;;16.60;33.70;;;;;;1490097;39;20028;-54
2021/05/04 01:42:37;;;;;;;4.03;1.42;;;16.60;34.30;;;;;;1490607;39;20284;-52
2021/05/04 01:43:58;;;;;;;4.43;1.55;;;16.50;34.60;;;;;;1491589;39;20047;-50
2021/05/04 01:45:19;;;;;;;7.30;1.40;;;16.40;34.20;;;;;;1491548;39;20040;-51
2021/05/04 01:46:40;;;;;;;3.22;1.33;;;16.30;34.40;;;;;;1490627;39;20493;-53
2021/05/04 01:48:01;;;;;;;4.43;1.52;;;16.30;34.60;;;;;;1489492;39;20028;-52
2021/05/04 01:49:22;;;;;;;2.65;1.15;;;16.20;36.10;;;;;;1491098;39;20035;-54
2021/05/04 01:50:43;;;;;;;4.60;1.50;;;16.10;37.40;;;;;;1490987;39;20027;-52
2021/05/04 01:52:05;;;;;;;1.73;1.50;;;16.00;39.50;;;;;;1492051;39;20145;-52
2021/05/04 01:53:26;;;;;;;1.48;1.38;;;15.90;40.10;;;;;;1491662;39;20507;-50
2021/05/04 01:54:49;;;;;;;3.05;1.10;;;15.70;40.30;;;;;;1491333;39;20028;-52
2021/05/04 01:56:10;;;;;;;1.65;1.20;;;15.60;40.20;;;;;;1491183;39;20061;-51
2021/05/04 01:57:31;;;;;;;1.10;1.10;;;15.40;41.40;;;;;;1486861;39;20049;-53
2021/05/04 01:58:55;;;;;;;4.38;1.60;;;15.30;41.10;;;;;;1490070;39;20080;-53
2021/05/04 02:00:16;;;;;;;1.10;1.10;;;15.20;41.40;;;;;;1491904;39;20120;-51
2021/05/04 02:01:37;;;;;;;1.83;1.17;;;15.00;42.20;;;;;;1490452;39;20028;-49
2021/05/04 02:02:58;;;;;;;2.70;1.30;;;14.90;42.00;;;;;;1490876;39;20035;-51
2021/05/04 02:04:20;;;;;;;2.75;1.27;;;14.80;42.60;;;;;;1492198;39;20067;-53
2021/05/04 02:05:40;;;;;;;1.67;1.30;;;14.60;42.60;;;;;;1490191;39;20297;-53
2021/05/04 02:07:03;;;;;;;1.70;1.27;;;14.50;43.10;;;;;;1491855;39;20028;-54
2021/05/04 02:08:24;;;;;;;1.92;1.25;;;14.40;44.20;;;;;;1489706;39;20072;-52
2021/05/04 02:09:45;;;;;;;2.70;1.58;;;14.30;44.40;;;;;;1491405;39;20345;-53
2021/05/04 02:11:06;;;;;;;3.40;1.67;;;14.20;45.10;;;;;;1491036;39;20034;-55
2021/05/04 02:12:27;;;;;;;2.60;1.25;;;14.10;45.70;;;;;;1490781;39;20112;-50
2021/05/04 02:13:48;;;;;;;4.65;1.60;;;14.00;46.20;;;;;;1489696;39;20020;-53
2021/05/04 02:15:10;;;;;;;2.50;1.40;;;13.90;45.50;;;;;;1491457;39;20028;-53
2021/05/04 02:16:32;;;;;;;2.42;1.15;;;13.80;45.90;;;;;;1490395;39;20055;-53
2021/05/04 02:17:53;;;;;;;2.25;1.17;;;13.70;45.80;;;;;;1490281;39;20108;-54
2021/05/04 02:19:14;;;;;;;2.03;1.30;;;13.70;46.30;;;;;;1491530;39;20068;-53
2021/05/04 02:20:34;;;;;;;1.23;1.10;;;13.60;46.40;;;;;;1489761;39;20031;-54
2021/05/04 02:21:55;;;;;;;1.88;1.45;;;13.50;46.80;;;;;;1491189;39;20028;-55
2021/05/04 02:23:16;;;;;;;1.52;1.13;;;13.50;46.70;;;;;;1490924;39;20376;-54
2021/05/04 02:24:37;;;;;;;2.78;1.15;;;13.40;47.20;;;;;;1491885;39;20054;-52
2021/05/04 02:25:58;;;;;;;2.22;1.33;;;13.40;47.30;;;;;;1489708;39;20039;-53
2021/05/04 02:27:19;;;;;;;2.85;1.10;;;13.30;47.90;;;;;;1490609;39;20042;-52
2021/05/04 02:28:40;;;;;;;2.13;1.40;;;13.30;48.50;;;;;;1488840;39;20035;-52
2021/05/04 02:30:02;;;;;;;1.60;1.30;;;13.20;48.50;;;;;;1492360;39;20035;-52
2021/05/04 02:31:23;;;;;;;1.38;1.27;;;13.10;48.30;;;;;;1491434;39;20036;-52
2021/05/04 02:32:44;;;;;;;1.73;1.20;;;13.10;48.30;;;;;;1489439;39;20368;-51
2021/05/04 02:34:05;;;;;;;0.98;0.98;;;13.10;48.50;;;;;;1491757;39;20028;-53
2021/05/04 02:35:26;;;;;;;1.48;1.38;;;13.00;48.40;;;;;;1491272;39;20044;-54
2021/05/04 02:36:47;;;;;;;1.58;1.10;;;13.00;49.50;;;;;;1490978;39;20030;-55
2021/05/04 02:38:08;;;;;;;1.55;1.33;;;12.90;49.20;;;;;;1491333;39;20123;-54
2021/05/04 02:39:29;;;;;;;1.10;1.10;;;12.90;49.70;;;;;;1491857;39;20020;-53
2021/05/04 02:40:50;;;;;;;2.22;1.38;;;12.80;49.90;;;;;;1491502;39;20020;-53
2021/05/04 02:42:11;;;;;;;1.15;1.15;;;12.80;50.30;;;;;;1491907;39;20030;-55
2021/05/04 02:43:32;;;;;;;1.80;1.38;;;12.80;50.10;;;;;;1488691;39;20028;-54
2021/05/04 02:44:53;;;;;;;1.13;1.00;;;12.70;50.20;;;;;;1490979;39;20065;-55
2021/05/04 02:46:14;;;;;;;2.97;1.40;;;12.70;49.70;;;;;;1491739;39;20371;-55
2021/05/04 02:47:35;;;;;;;1.33;1.20;;;12.70;50.30;;;;;;1491117;39;20032;-54
2021/05/04 02:48:57;;;;;;;2.08;1.42;;;12.60;50.50;;;;;;1490819;39;20035;-53
2021/05/04 02:50:18;;;;;;;2.97;1.55;;;12.60;51.20;;;;;;1491079;39;20136;-53
2021/05/04 02:51:39;;;;;;;1.42;1.30;;;12.60;51.20;;;;;;1490251;39;20064;-55
2021/05/04 02:53:00;;;;;;;1.30;1.17;;;12.50;50.60;;;;;;1489591;39;20090;-52
2021/05/04 02:54:21;;;;;;;1.55;1.45;;;12.50;50.70;;;;;;1488593;39;20036;-54
2021/05/04 02:55:42;;;;;;;4.25;1.30;;;12.50;50.90;;;;;;1489025;39;20024;-53
2021/05/04 02:57:03;;;;;;;1.17;1.17;;;12.50;50.90;;;;;;1486010;39;20139;-54
2021/05/04 02:58:24;;;;;;;1.23;1.13;;;12.50;51.10;;;;;;1488554;39;20039;-54
2021/05/04 02:59:45;;;;;;;1.40;1.30;;;12.50;50.70;;;;;;1491728;39;20150;-54
2021/05/04 03:01:06;;;;;;;1.63;1.35;;;12.50;50.90;;;;;;1488361;39;20028;-54
2021/05/04 03:02:27;;;;;;;2.35;1.23;;;12.40;50.70;;;;;;1490023;39;20039;-55
2021/05/04 03:03:48;;;;;;;1.40;1.30;;;12.50;51.00;;;;;;1490368;39;20064;-54
2021/05/04 03:05:09;;;;;;;2.05;1.30;;;12.50;51.10;;;;;;1490897;39;20028;-51
2021/05/04 03:06:30;;;;;;;1.50;1.33;;;12.50;50.80;;;;;;1484704;40;20117;-52
2021/05/04 03:07:51;;;;;;;1.30;1.20;;;12.50;50.60;;;;;;1488682;39;20265;-54
2021/05/04 03:09:12;;;;;;;1.08;1.08;;;12.50;50.50;;;;;;1491039;39;20031;-51
2021/05/04 03:10:33;;;;;;;1.25;1.15;;;12.50;50.40;;;;;;1489119;39;20033;-54
2021/05/04 03:11:53;;;;;;;3.72;1.02;;;12.50;50.50;;;;;;1489497;39;20028;-50
2021/05/04 03:13:20;;;;;;;1.30;1.20;;;12.50;50.30;;;;;;1489946;39;20456;-50
2021/05/04 03:14:41;;;;;;;1.50;1.40;;;12.50;50.40;;;;;;1490667;39;20089;-51
2021/05/04 03:16:02;;;;;;;1.30;1.20;;;12.50;50.30;;;;;;1490466;39;20031;-53
2021/05/04 03:17:24;;;;;;;1.45;1.35;;;12.50;50.30;;;;;;1490487;39;20092;-54
2021/05/04 03:18:44;;;;;;;3.78;1.50;;;12.50;50.40;;;;;;1489686;39;20054;-52
2021/05/04 03:20:06;;;;;;;1.95;1.30;;;12.50;50.10;;;;;;1491212;39;20063;-53
2021/05/04 03:21:28;;;;;;;3.30;1.17;;;12.50;50.30;;;;;;1491423;39;20113;-54
2021/05/04 03:22:49;;;;;;;1.15;1.15;;;12.50;50.10;;;;;;1490218;39;20024;-54
2021/05/04 03:24:10;;;;;;;1.67;1.40;;;12.50;50.50;;;;;;1490468;39;20021;-52
2021/05/04 03:25:31;;;;;;;1.30;1.20;;;12.60;50.40;;;;;;1490283;39;20028;-50
2021/05/04 03:26:52;;;;;;;1.15;1.10;;;12.60;50.60;;;;;;1490257;39;20031;-52
2021/05/04 03:28:15;;;;;;;2.47;1.30;;;12.60;50.40;;;;;;1490585;39;20072;-53
2021/05/04 03:29:36;;;;;;;1.45;1.13;;;12.50;50.50;;;;;;1490109;39;20028;-53
2021/05/04 03:30:57;;;;;;;3.05;1.55;;;12.60;50.70;;;;;;1490938;39;20024;-51
2021/05/04 03:32:18;;;;;;;2.25;1.27;;;12.60;50.50;;;;;;1489951;39;21334;-53
2021/05/04 03:33:39;;;;;;;1.48;1.05;;;12.60;50.60;;;;;;1491741;39;20611;-55
2021/05/04 03:35:00;;;;;;;1.65;1.55;;;12.60;50.50;;;;;;1489386;39;20035;-53
2021/05/04 03:36:20;;;;;;;2.53;1.40;;;12.60;50.70;;;;;;1490235;39;20522;-51
2021/05/04 03:37:41;;;;;;;2.50;1.20;;;12.60;50.40;;;;;;1490959;39;20056;-52
2021/05/04 03:39:03;;;;;;;1.50;1.08;;;12.60;50.50;;;;;;1490742;39;20541;-50
2021/05/04 03:40:25;;;;;;;1.75;1.40;;;12.60;50.40;;;;;;1490945;39;20036;-51
2021/05/04 03:41:46;;;;;;;1.52;1.05;;;12.60;50.60;;;;;;1491489;39;20027;-53
2021/05/04 03:43:06;;;;;;;1.30;1.20;;;12.60;50.90;;;;;;1490451;39;20723;-53
2021/05/04 03:44:27;;;;;;;1.60;1.17;;;12.60;50.50;;;;;;1487812;39;20048;-52
2021/05/04 03:45:48;;;;;;;1.30;1.20;;;12.60;50.50;;;;;;1491153;39;20069;-51
2021/05/04 03:47:09;;;;;;;2.75;1.20;;;12.60;51.00;;;;;;1490894;39;20628;-51
2021/05/04 03:48:30;;;;;;;1.30;1.20;;;12.60;50.50;;;;;;1490926;39;20532;-52
2021/05/04 03:49:51;;;;;;;1.38;1.25;;;12.60;50.70;;;;;;1491156;39;20040;-50
2021/05/04 03:51:12;;;;;;;1.30;1.20;;;12.60;50.50;;;;;;1487329;40;20246;-53
2021/05/04 03:52:33;;;;;;;1.27;1.17;;;12.60;50.60;;;;;;1489321;39;20032;-50
2021/05/04 03:53:54;;;;;;;1.17;1.10;;;12.60;50.70;;;;;;1491748;39;20036;-50
2021/05/04 03:55:15;;;;;;;1.00;1.00;;;12.60;50.70;;;;;;1488999;39;20035;-52
2021/05/04 03:56:36;;;;;;;1.50;1.40;;;12.60;50.70;;;;;;1488915;39;20316;-53
2021/05/04 03:57:57;;;;;;;1.27;1.23;;;12.60;50.90;;;;;;1490665;39;20046;-54
2021/05/04 03:59:18;;;;;;;1.45;1.35;;;12.60;50.80;;;;;;1491244;39;20124;-51
2021/05/04 04:00:39;;;;;;;1.67;1.50;;;12.60;50.80;;;;;;1490075;39;20024;-52
2021/05/04 04:02:00;;;;;;;1.42;1.13;;;12.60;50.80;;;;;;1490811;39;20034;-53
2021/05/04 04:03:21;;;;;;;1.25;1.23;;;12.70;50.80;;;;;;1489418;39;20033;-51
2021/05/04 04:04:42;;;;;;;1.40;1.05;;;12.70;51.00;;;;;;1490165;39;20024;-55
2021/05/04 04:06:03;;;;;;;1.27;1.17;;;12.70;51.00;;;;;;1491351;39;20043;-53
2021/05/04 04:07:23;;;;;;;1.40;1.30;;;12.70;51.10;;;;;;1491664;39;20027;-53
2021/05/04 04:08:47;;;;;;;1.80;1.00;;;12.70;50.90;;;;;;1490772;39;20031;-53
2021/05/04 04:10:11;;;;;;;1.63;1.33;;;12.70;51.00;;;;;;1490287;39;20089;-49
2021/05/04 04:11:32;;;;;;;2.10;1.20;;;12.70;51.00;;;;;;1490377;39;20279;-53
2021/05/04 04:12:54;;;;;;;1.38;1.27;;;12.80;51.00;;;;;;1489678;39;20036;-53
2021/05/04 04:14:15;;;;;;;1.73;1.23;;;12.80;51.00;;;;;;1489330;39;20032;-54
2021/05/04 04:15:36;;;;;;;1.58;1.20;;;12.80;51.00;;;;;;1490616;39;20072;-51
2021/05/04 04:16:57;;;;;;;1.50;1.40;;;12.80;50.80;;;;;;1489708;39;20028;-53
2021/05/04 04:18:18;;;;;;;1.38;1.27;;;12.80;50.70;;;;;;1490922;39;20059;-53
2021/05/04 04:19:39;;;;;;;1.00;1.00;;;12.80;50.90;;;;;;1489776;39;20453;-49
2021/05/04 04:21:00;;;;;;;1.00;1.00;;;12.80;51.00;;;;;;1490139;39;20028;-53
2021/05/04 04:22:21;;;;;;;2.15;1.17;;;12.90;50.90;;;;;;1489127;39;20036;-53
2021/05/04 04:23:42;;;;;;;1.27;1.17;;;12.90;50.80;;;;;;1491040;39;20053;-54
2021/05/04 04:25:04;;;;;;;3.22;1.38;;;12.90;50.90;;;;;;1490239;39;20028;-52
2021/05/04 04:26:25;;;;;;;3.35;1.40;;;12.90;50.80;;;;;;1489108;39;20031;-50
2021/05/04 04:27:46;;;;;;;6.80;1.20;;;12.90;50.60;;;;;;1489725;39;20092;-52
2021/05/04 04:29:07;;;;;;;1.10;1.10;;;12.90;50.70;;;;;;1488899;39;20032;-52
2021/05/04 04:30:28;;;;;;;0.95;0.95;;;12.90;50.60;;;;;;1490888;39;20040;-52
2021/05/04 04:31:49;;;;;;;1.33;1.20;;;12.90;50.70;;;;;;1489788;39;20040;-53
2021/05/04 04:33:09;;;;;;;1.70;1.17;;;12.90;50.80;;;;;;1491390;39;20260;-50
2021/05/04 04:34:30;;;;;;;2.22;1.33;;;12.90;50.80;;;;;;1489172;39;20035;-52
2021/05/04 04:35:51;;;;;;;1.58;1.38;;;12.90;50.70;;;;;;1489930;39;20410;-53
2021/05/04 04:37:12;;;;;;;1.40;1.30;;;12.90;50.70;;;;;;1489683;39;20056;-51
2021/05/04 04:38:33;;;;;;;1.65;1.27;;;12.90;50.80;;;;;;1489382;39;20047;-49
2021/05/04 04:39:54;;;;;;;1.27;1.17;;;12.90;50.80;;;;;;1489224;39;20036;-56
2021/05/04 04:41:15;;;;;;;1.70;1.00;;;12.90;50.90;;;;;;1490068;39;20075;-53
2021/05/04 04:42:36;;;;;;;2.58;1.20;;;12.90;51.10;;;;;;1489734;39;20377;-52
2021/05/04 04:43:57;;;;;;;1.30;1.20;;;12.90;51.20;;;;;;1488999;39;20059;-54
2021/05/04 04:45:18;;;;;;;2.67;1.08;;;12.90;50.90;;;;;;1489837;39;20036;-50
2021/05/04 04:46:42;;;;;;;3.10;1.35;;;12.90;50.90;;;;;;1489247;39;20075;-53
2021/05/04 04:48:03;;;;;;;1.30;1.20;;;12.90;50.90;;;;;;1489923;39;20044;-53
2021/05/04 04:49:24;;;;;;;1.10;1.10;;;12.90;50.80;;;;;;1491196;39;20040;-52
2021/05/04 04:50:45;;;;;;;1.30;1.13;;;12.90;50.80;;;;;;1491570;39;20357;-53
2021/05/04 04:52:06;;;;;;;2.60;1.30;;;13.00;50.80;;;;;;1491259;39;20031;-52
2021/05/04 04:53:27;;;;;;;1.20;1.17;;;13.00;51.00;;;;;;1490810;39;20124;-50
2021/05/04 04:54:48;;;;;;;4.05;1.55;;;13.00;51.00;;;;;;1489829;39;20064;-52
2021/05/04 04:56:09;;;;;;;2.15;1.48;;;13.00;51.20;;;;;;1488881;39;20039;-51
2021/05/04 04:57:30;;;;;;;1.13;1.13;;;12.90;51.70;;;;;;1491423;39;20064;-54
2021/05/04 04:58:51;;;;;;;2.08;1.30;;;13.00;51.40;;;;;;1491018;39;20414;-53
2021/05/04 05:00:12;;;;;;;1.15;1.05;;;13.00;51.50;;;;;;1492187;39;20117;-50
2021/05/04 05:01:34;;;;;;;1.48;1.13;;;13.00;51.30;;;;;;1488854;39;20059;-51
2021/05/04 05:02:55;;;;;;;1.10;1.10;;;13.00;51.40;;;;;;1490787;39;20424;-53
2021/05/04 05:04:15;;;;;;;1.23;1.10;;;13.00;51.30;;;;;;1490315;39;20032;-52
2021/05/04 05:05:36;;;;;;;1.33;1.15;;;13.00;51.50;;;;;;1489427;39;20042;-52
2021/05/04 05:06:57;;;;;;;3.33;1.25;;;13.00;51.50;;;;;;1491622;39;20058;-53
2021/05/04 05:08:18;;;;;;;3.53;1.23;;;13.00;51.40;;;;;;1490676;39;20046;-53
2021/05/04 05:09:39;;;;;;;1.00;1.00;;;13.00;51.60;;;;;;1490369;39;20031;-54
2021/05/04 05:11:00;;;;;;;1.20;1.10;;;13.00;51.30;;;;;;1491046;39;20024;-51
2021/05/04 05:12:23;;;;;;;1.60;1.20;;;13.00;51.30;;;;;;1489566;39;20110;-52
2021/05/04 05:13:45;;;;;;;1.17;1.08;;;13.00;51.20;;;;;;1490994;39;20065;-52
2021/05/04 05:15:07;;;;;;;3.10;1.20;;;13.00;51.30;;;;;;1491211;39;20059;-51
2021/05/04 05:16:28;;;;;;;1.63;1.10;;;13.00;51.30;;;;;;1490445;39;20044;-52
2021/05/04 05:17:49;;;;;;;2.83;1.25;;;13.00;51.30;;;;;;1490193;39;20060;-51
2021/05/04 05:19:09;;;;;;;3.15;1.08;;;13.00;51.40;;;;;;1491502;39;20067;-54
2021/05/04 05:20:30;;;;;;;1.67;1.00;;;13.00;51.40;;;;;;1491111;39;20020;-53
2021/05/04 05:21:51;;;;;;;2.53;1.02;;;13.00;51.40;;;;;;1491661;39;20063;-53
2021/05/04 05:23:12;;;;;;;1.38;1.20;;;13.00;51.30;;;;;;1490950;39;20044;-54
2021/05/04 05:24:34;;;;;;;2.55;1.00;;;13.00;51.50;;;;;;1492100;39;20076;-54
2021/05/04 05:25:57;;;;;;;1.27;1.17;;;13.10;51.50;;;;;;1490232;39;20044;-50
2021/05/04 05:27:18;;;;;;;2.72;1.33;;;13.10;51.50;;;;;;1491850;39;20075;-55
2021/05/04 05:28:39;;;;;;;4.85;1.30;;;13.00;51.80;;;;;;1490886;39;20031;-49
2021/05/04 05:30:00;;;;;;;2.03;1.20;;;13.10;52.10;;;;;;1490964;39;20023;-52
2021/05/04 05:31:22;;;;;;;1.20;1.20;;;13.10;51.80;;;;;;1490669;39;20040;-53
2021/05/04 05:32:43;;;;;;;2.10;1.05;;;13.00;51.70;;;;;;1490769;39;20047;-52
2021/05/04 05:34:04;;;;;;;1.38;1.20;;;13.10;51.60;;;;;;1490679;39;20337;-50
2021/05/04 05:35:25;;;;;;;1.38;1.17;;;13.10;52.00;;;;;;1491240;39;20357;-53
2021/05/04 05:36:46;;;;;;;1.33;1.23;;;13.10;52.10;;;;;;1491718;39;20018;-54
2021/05/04 05:38:07;;;;;;;1.70;1.23;;;13.10;52.20;;;;;;1491188;39;20372;-51
2021/05/04 05:39:28;;;;;;;1.15;1.15;;;13.10;51.90;;;;;;1491414;39;20040;-54
2021/05/04 05:40:49;;;;;;;1.75;1.25;;;13.10;52.30;;;;;;1489745;39;20594;-51
2021/05/04 05:42:11;;;;;;;4.32;1.30;;;13.10;52.30;;;;;;1491215;39;20024;-53
2021/05/04 05:43:32;;;;;;;1.50;1.25;;;13.10;52.10;;;;;;1491245;39;20062;-50
2021/05/04 05:44:53;;;;;;;1.33;1.23;;;13.10;52.00;;;;;;1490638;39;20016;-51
2021/05/04 05:46:14;;;;;;;1.17;1.00;;;13.10;52.30;;;;;;1490139;39;20032;-53
2021/05/04 05:47:35;;;;;;;1.50;1.40;;;13.10;52.20;;;;;;1491932;39;20364;-50
2021/05/04 05:48:59;;;;;;;3.33;1.25;;;13.10;52.60;;;;;;1492019;39;20034;-49
2021/05/04 05:50:20;;;;;;;1.35;1.15;;;13.10;52.40;;;;;;1489483;39;20360;-52
2021/05/04 05:51:41;;;;;;;1.83;1.13;;;13.10;52.30;;;;;;1490137;39;20028;-48
2021/05/04 05:53:02;;;;;;;2.28;1.40;;;13.10;52.30;;;;;;1489992;39;20085;-50
2021/05/04 05:54:24;;;;;;;1.38;1.20;;;13.10;52.50;;;;;;1489447;39;20050;-53
2021/05/04 05:55:45;;;;;;;1.40;1.30;;;13.10;52.40;;;;;;1489484;39;20105;-49
2021/05/04 05:57:06;;;;;;;2.05;1.48;;;13.10;52.50;;;;;;1490492;39;20023;-54
2021/05/04 05:58:27;;;;;;;1.42;1.30;;;13.20;52.90;;;;;;1489801;39;20093;-51
2021/05/04 05:59:48;;;;;;;1.30;1.20;;;13.10;52.60;;;;;;1490616;39;20040;-51
2021/05/04 06:01:09;;;;;;;1.38;1.20;;;13.20;52.80;;;;;;1491455;39;20027;-50
2021/05/04 06:02:30;;;;;;;2.42;1.40;;;13.20;52.60;;;;;;1491321;39;20042;-53
2021/05/04 06:03:51;;;;;;;1.75;1.35;;;13.20;52.80;;;;;;1491557;39;20034;-51
2021/05/04 06:05:13;;;;;;;1.77;1.40;;;13.20;52.80;;;;;;1491446;39;20063;-52
2021/05/04 06:06:34;;;;;;;2.10;1.40;;;13.20;52.50;;;;;;1491278;39;20043;-48
2021/05/04 06:07:55;;;;;;;1.65;1.55;;;13.20;52.60;;;;;;1490536;39;20024;-53
2021/05/04 06:09:16;;;;;;;1.92;1.20;;;13.20;52.70;;;;;;1490742;39;20263;-52
2021/05/04 06:10:37;;;;;;;1.50;1.40;;;13.30;52.60;;;;;;1491403;39;20019;-50
2021/05/04 06:11:57;;;;;;;4.60;1.38;;;13.20;53.10;;;;;;1491648;39;20031;-52
2021/05/04 06:13:19;;;;;;;4.93;1.27;;;13.30;52.80;;;;;;1490535;39;20067;-54
2021/05/04 06:14:40;;;;;;;3.67;1.50;;;13.30;53.00;;;;;;1491799;39;20028;-48
2021/05/04 06:16:01;;;;;;;1.90;1.42;;;13.30;53.10;;;;;;1490874;39;20081;-51
2021/05/04 06:17:22;;;;;;;3.08;1.42;;;13.30;52.90;;;;;;1491231;39;20047;-54
2021/05/04 06:18:43;;;;;;;1.48;1.17;;;13.30;53.10;;;;;;1489945;39;20016;-50
2021/05/04 06:20:04;;;;;;;4.05;1.50;;;13.30;52.90;;;;;;1489950;39;20035;-49
2021/05/04 06:21:25;;;;;;;1.50;1.40;;;13.30;53.10;;;;;;1490054;39;20076;-51
2021/05/04 06:22:47;;;;;;;3.58;1.60;;;13.30;52.80;;;;;;1489686;39;20390;-50
2021/05/04 06:24:08;;;;;;;2.50;1.27;;;13.30;53.20;;;;;;1489205;39;20109;-52
2021/05/04 06:25:29;;;;;;;2.88;1.45;;;13.40;53.20;;;;;;1484928;40;20508;-50
2021/05/04 06:26:51;;;;;;;8.00;1.20;;;13.30;53.30;;;;;;1488500;39;20031;-55
2021/05/04 06:28:12;;;;;;;1.85;1.63;;;13.40;53.70;;;;;;1489627;39;20043;-51
2021/05/04 06:29:33;;;;;;;3.13;1.40;;;13.40;54.30;;;;;;1490080;39;20028;-51
2021/05/04 06:30:54;;;;;;;1.58;1.30;;;13.40;54.10;;;;;;1490310;39;20032;-51
2021/05/04 06:32:16;;;;;;;1.73;1.52;;;13.30;53.70;;;;;;1491940;39;20044;-50
2021/05/04 06:33:36;;;;;;;1.60;1.40;;;13.30;54.20;;;;;;1490137;39;20039;-54
2021/05/04 06:34:58;;;;;;;1.55;1.45;;;13.30;54.20;;;;;;1490552;39;20039;-54
2021/05/04 06:36:19;;;;;;;2.22;1.30;;;13.30;54.00;;;;;;1489274;39;20061;-54
2021/05/04 06:37:40;;;;;;;3.22;1.48;;;13.30;54.10;;;;;;1488997;39;20023;-51
2021/05/04 06:39:02;;;;;;;3.05;1.13;;;13.30;54.10;;;;;;1490711;39;20031;-51
2021/05/04 06:40:23;;;;;;;1.50;0.98;;;13.30;54.30;;;;;;1491256;39;20036;-52
2021/05/04 06:41:44;;;;;;;1.67;1.10;;;13.30;53.90;;;;;;1488714;39;20028;-54
2021/05/04 06:43:05;;;;;;;2.78;1.10;;;13.30;53.90;;;;;;1486428;39;20281;-50
2021/05/04 06:44:26;;;;;;;1.38;1.27;;;13.40;53.90;;;;;;1488253;39;20039;-51
2021/05/04 06:45:47;;;;;;;1.17;1.15;;;13.40;53.80;;;;;;1491247;39;20364;-53
2021/05/04 06:47:07;;;;;;;1.20;1.10;;;13.30;53.60;;;;;;1490226;39;20620;-54
2021/05/04 06:48:28;;;;;;;1.50;1.40;;;13.40;53.70;;;;;;1491763;39;20040;-51
2021/05/04 06:49:49;;;;;;;1.13;1.13;;;13.40;53.90;;;;;;1491318;39;20054;-48
2021/05/04 06:51:10;;;;;;;1.30;1.20;;;13.40;53.80;;;;;;1490860;39;20088;-51
2021/05/04 06:52:31;;;;;;;1.48;1.08;;;13.40;53.70;;;;;;1486564;40;20023;-50
2021/05/04 06:53:52;;;;;;;1.77;1.27;;;13.40;53.90;;;;;;1489811;39;20040;-51
2021/05/04 06:55:13;;;;;;;1.70;1.10;;;13.50;54.20;;;;;;1491113;39;20043;-51
2021/05/04 06:56:34;;;;;;;1.83;1.10;;;13.50;53.90;;;;;;1490775;39;20414;-49
2021/05/04 06:57:55;;;;;;;2.25;1.40;;;13.50;54.00;;;;;;1488875;39;20023;-52
2021/05/04 06:59:16;;;;;;;1.67;0.88;;;13.50;54.10;;;;;;1491454;39;20128;-53
2021/05/04 07:00:36;;;;;;;1.27;1.10;;;13.50;53.70;;;;;;1490908;39;20042;-52
2021/05/04 07:01:59;;;;;;;1.58;1.30;;;13.50;54.10;;;;;;1489201;39;20028;-52
2021/05/04 07:03:20;;;;;;;2.58;1.33;;;13.50;54.10;;;;;;1490899;39;20043;-51